sensor_id;sensor_type;location;lat;lon;timestamp;P1;durP1;ratioP1;P2;durP2;ratioP2
15307;SDS011;7755;52.208;6.964;2023-01-16T00:00:10;5.90;;;2.90;;
15307;SDS011;7755;52.208;6.964;2023-01-16T00:04:14;3.60;;;2.57;;
15307;SDS011;7755;52.208;6.964;2023-01-16T00:08:19;5.23;;;2.57;;
15307;SDS011;7755;52.208;6.964;2023-01-16T00:12:22;5.93;;;2.80;;
15307;SDS011;7755;52.208;6.964;2023-01-16T00:16:25;3.47;;;2.20;;
15307;SDS011;7755;52.208;6.964;2023-01-16T00:20:28;4.17;;;2.60;;
15307;SDS011;7755;52.208;6.964;2023-01-16T00:24:33;5.10;;;2.77;;
15307;SDS011;7755;52.208;6.964;2023-01-16T00:28:36;4.67;;;2.53;;
15307;SDS011;7755;52.208;6.964;2023-01-16T00:32:39;3.30;;;2.40;;
15307;SDS011;7755;52.208;6.964;2023-01-16T00:36:42;5.83;;;2.70;;
15307;SDS011;7755;52.208;6.964;2023-01-16T00:40:49;3.17;;;2.77;;
15307;SDS011;7755;52.208;6.964;2023-01-16T00:48:58;6.80;;;2.60;;
15307;SDS011;7755;52.208;6.964;2023-01-16T00:53:01;5.80;;;2.60;;
15307;SDS011;7755;52.208;6.964;2023-01-16T00:57:06;5.07;;;2.27;;
15307;SDS011;7755;52.208;6.964;2023-01-16T01:01:09;3.50;;;2.20;;
15307;SDS011;7755;52.208;6.964;2023-01-16T01:05:15;4.20;;;2.70;;
15307;SDS011;7755;52.208;6.964;2023-01-16T01:09:18;4.63;;;2.50;;
15307;SDS011;7755;52.208;6.964;2023-01-16T01:13:24;3.80;;;2.60;;
15307;SDS011;7755;52.208;6.964;2023-01-16T01:17:27;3.13;;;2.10;;
15307;SDS011;7755;52.208;6.964;2023-01-16T01:21:30;3.00;;;2.17;;
15307;SDS011;7755;52.208;6.964;2023-01-16T01:25:33;6.10;;;2.90;;
15307;SDS011;7755;52.208;6.964;2023-01-16T01:29:40;2.40;;;2.20;;
15307;SDS011;7755;52.208;6.964;2023-01-16T01:33:45;3.10;;;2.20;;
15307;SDS011;7755;52.208;6.964;2023-01-16T01:37:48;3.43;;;2.20;;
15307;SDS011;7755;52.208;6.964;2023-01-16T01:41:51;2.70;;;2.27;;
15307;SDS011;7755;52.208;6.964;2023-01-16T01:46:20;3.63;;;2.80;;
15307;SDS011;7755;52.208;6.964;2023-01-16T01:50:30;3.53;;;2.47;;
15307;SDS011;7755;52.208;6.964;2023-01-16T01:54:39;4.43;;;2.80;;
15307;SDS011;7755;52.208;6.964;2023-01-16T01:58:48;3.57;;;3.27;;
15307;SDS011;7755;52.208;6.964;2023-01-16T02:02:58;3.37;;;2.83;;
15307;SDS011;7755;52.208;6.964;2023-01-16T02:07:09;3.60;;;3.30;;
15307;SDS011;7755;52.208;6.964;2023-01-16T02:11:17;3.33;;;3.13;;
15307;SDS011;7755;52.208;6.964;2023-01-16T02:15:28;3.30;;;3.00;;
15307;SDS011;7755;52.208;6.964;2023-01-16T02:19:36;2.60;;;2.50;;
15307;SDS011;7755;52.208;6.964;2023-01-16T02:23:50;3.03;;;2.63;;
15307;SDS011;7755;52.208;6.964;2023-01-16T02:28:20;2.93;;;2.73;;
15307;SDS011;7755;52.208;6.964;2023-01-16T02:32:46;2.90;;;2.70;;
15307;SDS011;7755;52.208;6.964;2023-01-16T02:36:59;2.53;;;2.43;;
15307;SDS011;7755;52.208;6.964;2023-01-16T02:41:15;3.17;;;2.90;;
15307;SDS011;7755;52.208;6.964;2023-01-16T02:45:28;3.20;;;2.80;;
15307;SDS011;7755;52.208;6.964;2023-01-16T02:49:40;2.93;;;2.67;;
15307;SDS011;7755;52.208;6.964;2023-01-16T02:53:48;2.87;;;2.70;;
15307;SDS011;7755;52.208;6.964;2023-01-16T02:58:00;2.80;;;2.60;;
15307;SDS011;7755;52.208;6.964;2023-01-16T03:02:06;5.93;;;2.90;;
15307;SDS011;7755;52.208;6.964;2023-01-16T03:06:20;3.57;;;3.27;;
15307;SDS011;7755;52.208;6.964;2023-01-16T03:10:39;3.30;;;2.83;;
15307;SDS011;7755;52.208;6.964;2023-01-16T03:15:07;3.60;;;3.30;;
15307;SDS011;7755;52.208;6.964;2023-01-16T03:19:16;3.77;;;3.43;;
15307;SDS011;7755;52.208;6.964;2023-01-16T03:23:33;4.00;;;3.57;;
15307;SDS011;7755;52.208;6.964;2023-01-16T03:27:44;4.00;;;3.60;;
15307;SDS011;7755;52.208;6.964;2023-01-16T03:31:55;3.13;;;2.90;;
15307;SDS011;7755;52.208;6.964;2023-01-16T03:36:01;4.77;;;3.53;;
15307;SDS011;7755;52.208;6.964;2023-01-16T03:40:12;5.90;;;3.70;;
15307;SDS011;7755;52.208;6.964;2023-01-16T03:44:18;3.50;;;3.20;;
15307;SDS011;7755;52.208;6.964;2023-01-16T03:48:28;4.00;;;3.30;;
15307;SDS011;7755;52.208;6.964;2023-01-16T03:52:38;4.37;;;3.40;;
15307;SDS011;7755;52.208;6.964;2023-01-16T03:56:46;6.93;;;3.33;;
15307;SDS011;7755;52.208;6.964;2023-01-16T04:00:55;2.97;;;2.70;;
15307;SDS011;7755;52.208;6.964;2023-01-16T04:05:08;8.10;;;3.37;;
15307;SDS011;7755;52.208;6.964;2023-01-16T04:09:18;4.63;;;2.63;;
15307;SDS011;7755;52.208;6.964;2023-01-16T04:13:30;8.90;;;3.13;;
15307;SDS011;7755;52.208;6.964;2023-01-16T04:17:37;4.20;;;2.47;;
15307;SDS011;7755;52.208;6.964;2023-01-16T04:21:43;5.87;;;2.67;;
15307;SDS011;7755;52.208;6.964;2023-01-16T04:25:48;2.83;;;2.50;;
15307;SDS011;7755;52.208;6.964;2023-01-16T04:29:53;5.33;;;3.03;;
15307;SDS011;7755;52.208;6.964;2023-01-16T04:33:57;4.67;;;2.50;;
15307;SDS011;7755;52.208;6.964;2023-01-16T04:38:00;3.73;;;2.50;;
15307;SDS011;7755;52.208;6.964;2023-01-16T04:42:03;5.07;;;2.50;;
15307;SDS011;7755;52.208;6.964;2023-01-16T04:46:08;4.80;;;2.87;;
15307;SDS011;7755;52.208;6.964;2023-01-16T04:50:11;3.63;;;2.70;;
15307;SDS011;7755;52.208;6.964;2023-01-16T04:54:15;3.63;;;3.07;;
15307;SDS011;7755;52.208;6.964;2023-01-16T04:58:20;4.77;;;2.67;;
15307;SDS011;7755;52.208;6.964;2023-01-16T05:02:25;4.03;;;2.63;;
15307;SDS011;7755;52.208;6.964;2023-01-16T05:06:28;5.07;;;3.13;;
15307;SDS011;7755;52.208;6.964;2023-01-16T05:10:31;5.77;;;3.10;;
15307;SDS011;7755;52.208;6.964;2023-01-16T05:14:34;4.63;;;3.13;;
15307;SDS011;7755;52.208;6.964;2023-01-16T05:18:39;4.23;;;3.30;;
15307;SDS011;7755;52.208;6.964;2023-01-16T05:22:43;5.27;;;2.97;;
15307;SDS011;7755;52.208;6.964;2023-01-16T05:26:47;3.83;;;3.10;;
15307;SDS011;7755;52.208;6.964;2023-01-16T05:30:50;7.50;;;3.30;;
15307;SDS011;7755;52.208;6.964;2023-01-16T05:34:55;6.20;;;3.90;;
15307;SDS011;7755;52.208;6.964;2023-01-16T05:39:02;6.30;;;3.97;;
15307;SDS011;7755;52.208;6.964;2023-01-16T05:43:05;4.90;;;4.27;;
15307;SDS011;7755;52.208;6.964;2023-01-16T05:47:08;6.67;;;4.73;;
15307;SDS011;7755;52.208;6.964;2023-01-16T05:51:13;7.43;;;4.40;;
15307;SDS011;7755;52.208;6.964;2023-01-16T05:55:18;4.47;;;4.03;;
15307;SDS011;7755;52.208;6.964;2023-01-16T05:59:21;5.47;;;4.83;;
15307;SDS011;7755;52.208;6.964;2023-01-16T06:03:24;5.37;;;4.00;;
15307;SDS011;7755;52.208;6.964;2023-01-16T06:07:28;5.47;;;4.63;;
15307;SDS011;7755;52.208;6.964;2023-01-16T06:11:31;4.80;;;4.40;;
15307;SDS011;7755;52.208;6.964;2023-01-16T06:15:34;5.77;;;4.47;;
15307;SDS011;7755;52.208;6.964;2023-01-16T06:19:38;7.10;;;4.20;;
15307;SDS011;7755;52.208;6.964;2023-01-16T06:23:43;5.03;;;4.53;;
15307;SDS011;7755;52.208;6.964;2023-01-16T06:27:47;5.50;;;4.20;;
15307;SDS011;7755;52.208;6.964;2023-01-16T06:31:51;4.00;;;3.60;;
15307;SDS011;7755;52.208;6.964;2023-01-16T06:35:54;4.90;;;3.53;;
15307;SDS011;7755;52.208;6.964;2023-01-16T06:39:58;3.53;;;3.23;;
15307;SDS011;7755;52.208;6.964;2023-01-16T06:44:03;2.83;;;2.53;;
15307;SDS011;7755;52.208;6.964;2023-01-16T06:48:06;4.00;;;3.20;;
15307;SDS011;7755;52.208;6.964;2023-01-16T06:52:09;3.77;;;3.43;;
15307;SDS011;7755;52.208;6.964;2023-01-16T06:56:14;3.50;;;2.73;;
15307;SDS011;7755;52.208;6.964;2023-01-16T07:00:18;3.07;;;2.73;;
15307;SDS011;7755;52.208;6.964;2023-01-16T07:04:22;3.63;;;2.60;;
15307;SDS011;7755;52.208;6.964;2023-01-16T07:08:25;3.97;;;2.53;;
15307;SDS011;7755;52.208;6.964;2023-01-16T07:12:31;2.73;;;2.17;;
15307;SDS011;7755;52.208;6.964;2023-01-16T07:16:34;4.50;;;2.07;;
15307;SDS011;7755;52.208;6.964;2023-01-16T07:20:55;3.17;;;2.00;;
15307;SDS011;7755;52.208;6.964;2023-01-16T07:25:18;3.47;;;1.90;;
15307;SDS011;7755;52.208;6.964;2023-01-16T07:29:25;2.40;;;2.00;;
15307;SDS011;7755;52.208;6.964;2023-01-16T07:33:30;4.60;;;2.00;;
15307;SDS011;7755;52.208;6.964;2023-01-16T07:37:34;3.00;;;1.90;;
15307;SDS011;7755;52.208;6.964;2023-01-16T07:41:37;1.83;;;1.73;;
15307;SDS011;7755;52.208;6.964;2023-01-16T07:46:00;2.97;;;1.97;;
15307;SDS011;7755;52.208;6.964;2023-01-16T07:50:04;2.90;;;1.87;;
15307;SDS011;7755;52.208;6.964;2023-01-16T07:54:08;2.27;;;2.17;;
15307;SDS011;7755;52.208;6.964;2023-01-16T07:58:13;2.70;;;2.27;;
15307;SDS011;7755;52.208;6.964;2023-01-16T08:02:17;2.80;;;2.53;;
15307;SDS011;7755;52.208;6.964;2023-01-16T08:06:21;2.30;;;2.10;;
15307;SDS011;7755;52.208;6.964;2023-01-16T08:10:24;2.53;;;2.07;;
15307;SDS011;7755;52.208;6.964;2023-01-16T08:14:27;2.33;;;2.03;;
15307;SDS011;7755;52.208;6.964;2023-01-16T08:18:32;1.93;;;1.83;;
15307;SDS011;7755;52.208;6.964;2023-01-16T08:22:34;3.17;;;2.20;;
15307;SDS011;7755;52.208;6.964;2023-01-16T08:26:37;3.57;;;2.10;;
15307;SDS011;7755;52.208;6.964;2023-01-16T08:30:41;2.20;;;1.93;;
15307;SDS011;7755;52.208;6.964;2023-01-16T08:34:46;2.20;;;1.97;;
15307;SDS011;7755;52.208;6.964;2023-01-16T08:38:49;2.63;;;1.90;;
15307;SDS011;7755;52.208;6.964;2023-01-16T08:42:52;3.17;;;2.10;;
15307;SDS011;7755;52.208;6.964;2023-01-16T08:47:13;3.63;;;2.13;;
15307;SDS011;7755;52.208;6.964;2023-01-16T08:51:39;5.17;;;2.17;;
15307;SDS011;7755;52.208;6.964;2023-01-16T08:55:43;2.33;;;2.10;;
15307;SDS011;7755;52.208;6.964;2023-01-16T08:59:46;3.67;;;2.30;;
15307;SDS011;7755;52.208;6.964;2023-01-16T09:03:49;4.37;;;2.47;;
15307;SDS011;7755;52.208;6.964;2023-01-16T09:07:54;2.83;;;2.37;;
15307;SDS011;7755;52.208;6.964;2023-01-16T09:11:57;3.07;;;2.57;;
15307;SDS011;7755;52.208;6.964;2023-01-16T09:16:18;2.57;;;2.33;;
15307;SDS011;7755;52.208;6.964;2023-01-16T09:20:23;2.97;;;2.40;;
15307;SDS011;7755;52.208;6.964;2023-01-16T09:24:27;3.63;;;2.47;;
15307;SDS011;7755;52.208;6.964;2023-01-16T09:28:30;2.83;;;2.63;;
15307;SDS011;7755;52.208;6.964;2023-01-16T09:32:33;4.30;;;2.50;;
15307;SDS011;7755;52.208;6.964;2023-01-16T09:36:36;5.37;;;2.60;;
15307;SDS011;7755;52.208;6.964;2023-01-16T09:40:43;3.97;;;2.70;;
15307;SDS011;7755;52.208;6.964;2023-01-16T09:44:50;2.83;;;2.40;;
15307;SDS011;7755;52.208;6.964;2023-01-16T09:48:57;2.87;;;2.67;;
15307;SDS011;7755;52.208;6.964;2023-01-16T09:53:05;2.70;;;2.40;;
15307;SDS011;7755;52.208;6.964;2023-01-16T09:57:35;4.13;;;2.40;;
15307;SDS011;7755;52.208;6.964;2023-01-16T10:02:00;4.47;;;2.90;;
15307;SDS011;7755;52.208;6.964;2023-01-16T10:06:13;4.17;;;3.27;;
15307;SDS011;7755;52.208;6.964;2023-01-16T10:10:32;2.70;;;2.50;;
15307;SDS011;7755;52.208;6.964;2023-01-16T10:14:51;3.43;;;3.13;;
15307;SDS011;7755;52.208;6.964;2023-01-16T10:19:05;3.57;;;3.00;;
15307;SDS011;7755;52.208;6.964;2023-01-16T10:23:21;2.90;;;2.70;;
15307;SDS011;7755;52.208;6.964;2023-01-16T10:27:36;3.53;;;3.23;;
15307;SDS011;7755;52.208;6.964;2023-01-16T10:31:51;3.40;;;2.90;;
15307;SDS011;7755;52.208;6.964;2023-01-16T10:36:01;3.43;;;2.83;;
15307;SDS011;7755;52.208;6.964;2023-01-16T10:40:10;5.00;;;3.27;;
15307;SDS011;7755;52.208;6.964;2023-01-16T10:44:35;3.87;;;3.13;;
15307;SDS011;7755;52.208;6.964;2023-01-16T10:49:08;3.00;;;2.80;;
15307;SDS011;7755;52.208;6.964;2023-01-16T10:53:30;3.20;;;2.90;;
15307;SDS011;7755;52.208;6.964;2023-01-16T10:57:43;3.80;;;2.87;;
15307;SDS011;7755;52.208;6.964;2023-01-16T11:01:48;3.80;;;2.80;;
15307;SDS011;7755;52.208;6.964;2023-01-16T11:05:55;3.23;;;2.90;;
15307;SDS011;7755;52.208;6.964;2023-01-16T11:10:13;2.87;;;2.60;;
15307;SDS011;7755;52.208;6.964;2023-01-16T11:14:18;3.70;;;2.70;;
15307;SDS011;7755;52.208;6.964;2023-01-16T11:18:41;4.20;;;2.63;;
15307;SDS011;7755;52.208;6.964;2023-01-16T11:22:47;3.53;;;2.40;;
15307;SDS011;7755;52.208;6.964;2023-01-16T11:26:58;2.17;;;1.97;;
15307;SDS011;7755;52.208;6.964;2023-01-16T11:31:06;2.20;;;2.00;;
15307;SDS011;7755;52.208;6.964;2023-01-16T11:35:16;3.17;;;1.97;;
15307;SDS011;7755;52.208;6.964;2023-01-16T11:39:22;2.37;;;2.17;;
15307;SDS011;7755;52.208;6.964;2023-01-16T11:43:28;2.20;;;2.07;;
15307;SDS011;7755;52.208;6.964;2023-01-16T11:47:50;2.17;;;2.07;;
15307;SDS011;7755;52.208;6.964;2023-01-16T11:51:57;3.97;;;2.43;;
15307;SDS011;7755;52.208;6.964;2023-01-16T11:56:11;2.03;;;1.73;;
15307;SDS011;7755;52.208;6.964;2023-01-16T12:00:30;1.83;;;1.73;;
15307;SDS011;7755;52.208;6.964;2023-01-16T12:04:49;2.03;;;1.93;;
15307;SDS011;7755;52.208;6.964;2023-01-16T12:09:31;1.93;;;1.83;;
15307;SDS011;7755;52.208;6.964;2023-01-16T12:13:48;1.70;;;1.60;;
15307;SDS011;7755;52.208;6.964;2023-01-16T12:18:16;2.07;;;1.97;;
15307;SDS011;7755;52.208;6.964;2023-01-16T12:22:26;3.20;;;1.77;;
15307;SDS011;7755;52.208;6.964;2023-01-16T12:26:48;3.47;;;3.17;;
15307;SDS011;7755;52.208;6.964;2023-01-16T12:31:09;4.13;;;2.33;;
15307;SDS011;7755;52.208;6.964;2023-01-16T12:35:39;2.20;;;2.10;;
15307;SDS011;7755;52.208;6.964;2023-01-16T12:39:48;2.27;;;2.07;;
15307;SDS011;7755;52.208;6.964;2023-01-16T12:44:01;2.63;;;2.30;;
15307;SDS011;7755;52.208;6.964;2023-01-16T12:48:34;2.40;;;1.70;;
15307;SDS011;7755;52.208;6.964;2023-01-16T12:52:59;1.60;;;1.50;;
15307;SDS011;7755;52.208;6.964;2023-01-16T12:57:19;3.23;;;3.03;;
15307;SDS011;7755;52.208;6.964;2023-01-16T13:01:33;3.40;;;2.50;;
15307;SDS011;7755;52.208;6.964;2023-01-16T13:05:42;2.10;;;2.00;;
15307;SDS011;7755;52.208;6.964;2023-01-16T13:09:48;2.63;;;2.50;;
15307;SDS011;7755;52.208;6.964;2023-01-16T13:14:15;2.50;;;2.37;;
15307;SDS011;7755;52.208;6.964;2023-01-16T13:18:21;1.70;;;1.70;;
15307;SDS011;7755;52.208;6.964;2023-01-16T13:22:30;1.80;;;1.63;;
15307;SDS011;7755;52.208;6.964;2023-01-16T13:26:51;2.10;;;1.93;;
15307;SDS011;7755;52.208;6.964;2023-01-16T13:30:56;2.07;;;1.97;;
15307;SDS011;7755;52.208;6.964;2023-01-16T13:35:04;2.13;;;1.97;;
15307;SDS011;7755;52.208;6.964;2023-01-16T13:39:32;2.20;;;2.10;;
15307;SDS011;7755;52.208;6.964;2023-01-16T13:43:55;1.70;;;1.60;;
15307;SDS011;7755;52.208;6.964;2023-01-16T13:48:21;1.80;;;1.70;;
15307;SDS011;7755;52.208;6.964;2023-01-16T13:52:29;1.97;;;1.87;;
15307;SDS011;7755;52.208;6.964;2023-01-16T13:56:34;1.60;;;1.50;;
15307;SDS011;7755;52.208;6.964;2023-01-16T14:00:37;1.67;;;1.57;;
15307;SDS011;7755;52.208;6.964;2023-01-16T14:04:41;2.30;;;1.67;;
15307;SDS011;7755;52.208;6.964;2023-01-16T14:08:49;1.83;;;1.73;;
15307;SDS011;7755;52.208;6.964;2023-01-16T14:13:20;1.63;;;1.63;;
15307;SDS011;7755;52.208;6.964;2023-01-16T14:17:29;2.50;;;2.20;;
15307;SDS011;7755;52.208;6.964;2023-01-16T14:21:55;2.13;;;2.03;;
15307;SDS011;7755;52.208;6.964;2023-01-16T14:26:28;1.67;;;1.60;;
15307;SDS011;7755;52.208;6.964;2023-01-16T14:30:39;2.20;;;2.00;;
15307;SDS011;7755;52.208;6.964;2023-01-16T14:34:46;2.43;;;2.23;;
15307;SDS011;7755;52.208;6.964;2023-01-16T14:38:53;2.63;;;2.40;;
15307;SDS011;7755;52.208;6.964;2023-01-16T14:42:56;1.87;;;1.77;;
15307;SDS011;7755;52.208;6.964;2023-01-16T14:47:27;2.27;;;2.17;;
15307;SDS011;7755;52.208;6.964;2023-01-16T14:51:54;2.87;;;2.57;;
15307;SDS011;7755;52.208;6.964;2023-01-16T14:56:24;2.37;;;2.20;;
15307;SDS011;7755;52.208;6.964;2023-01-16T15:00:30;2.47;;;2.27;;
15307;SDS011;7755;52.208;6.964;2023-01-16T15:04:39;2.63;;;2.43;;
15307;SDS011;7755;52.208;6.964;2023-01-16T15:08:47;2.20;;;2.03;;
15307;SDS011;7755;52.208;6.964;2023-01-16T15:12:51;1.90;;;1.80;;
15307;SDS011;7755;52.208;6.964;2023-01-16T15:16:57;2.13;;;2.03;;
15307;SDS011;7755;52.208;6.964;2023-01-16T15:21:39;1.80;;;1.70;;
15307;SDS011;7755;52.208;6.964;2023-01-16T15:30:35;2.10;;;2.00;;
15307;SDS011;7755;52.208;6.964;2023-01-16T15:34:39;2.07;;;1.97;;
15307;SDS011;7755;52.208;6.964;2023-01-16T15:38:45;2.27;;;2.17;;
15307;SDS011;7755;52.208;6.964;2023-01-16T15:42:50;1.87;;;1.77;;
15307;SDS011;7755;52.208;6.964;2023-01-16T15:47:18;2.00;;;1.90;;
15307;SDS011;7755;52.208;6.964;2023-01-16T15:51:35;2.73;;;2.53;;
15307;SDS011;7755;52.208;6.964;2023-01-16T15:55:41;2.00;;;1.90;;
15307;SDS011;7755;52.208;6.964;2023-01-16T15:59:51;4.67;;;4.37;;
15307;SDS011;7755;52.208;6.964;2023-01-16T16:03:55;2.27;;;2.17;;
15307;SDS011;7755;52.208;6.964;2023-01-16T16:08:00;2.30;;;2.20;;
15307;SDS011;7755;52.208;6.964;2023-01-16T16:12:05;2.80;;;2.60;;
15307;SDS011;7755;52.208;6.964;2023-01-16T16:16:18;3.03;;;2.63;;
15307;SDS011;7755;52.208;6.964;2023-01-16T16:20:41;2.37;;;2.27;;
15307;SDS011;7755;52.208;6.964;2023-01-16T16:24:45;2.00;;;1.90;;
15307;SDS011;7755;52.208;6.964;2023-01-16T16:28:49;2.33;;;2.13;;
15307;SDS011;7755;52.208;6.964;2023-01-16T16:32:56;2.17;;;2.07;;
15307;SDS011;7755;52.208;6.964;2023-01-16T16:37:00;2.60;;;2.50;;
15307;SDS011;7755;52.208;6.964;2023-01-16T16:41:41;2.30;;;2.20;;
15307;SDS011;7755;52.208;6.964;2023-01-16T16:46:14;3.13;;;2.93;;
15307;SDS011;7755;52.208;6.964;2023-01-16T16:50:34;2.47;;;2.37;;
15307;SDS011;7755;52.208;6.964;2023-01-16T16:54:37;3.50;;;3.30;;
15307;SDS011;7755;52.208;6.964;2023-01-16T16:58:42;3.20;;;3.00;;
15307;SDS011;7755;52.208;6.964;2023-01-16T17:03:06;2.57;;;2.40;;
15307;SDS011;7755;52.208;6.964;2023-01-16T17:07:15;2.57;;;2.47;;
15307;SDS011;7755;52.208;6.964;2023-01-16T17:11:20;3.70;;;3.50;;
15307;SDS011;7755;52.208;6.964;2023-01-16T17:15:23;3.73;;;3.43;;
15307;SDS011;7755;52.208;6.964;2023-01-16T17:19:28;4.07;;;3.87;;
15307;SDS011;7755;52.208;6.964;2023-01-16T17:23:33;3.33;;;3.13;;
15307;SDS011;7755;52.208;6.964;2023-01-16T17:27:36;4.27;;;3.97;;
15307;SDS011;7755;52.208;6.964;2023-01-16T17:31:40;4.03;;;3.73;;
15307;SDS011;7755;52.208;6.964;2023-01-16T17:35:45;4.57;;;4.23;;
15307;SDS011;7755;52.208;6.964;2023-01-16T17:40:09;4.20;;;3.90;;
15307;SDS011;7755;52.208;6.964;2023-01-16T17:44:14;4.23;;;3.93;;
15307;SDS011;7755;52.208;6.964;2023-01-16T17:48:36;4.60;;;4.30;;
15307;SDS011;7755;52.208;6.964;2023-01-16T17:52:41;6.70;;;6.10;;
15307;SDS011;7755;52.208;6.964;2023-01-16T17:56:44;8.83;;;8.03;;
15307;SDS011;7755;52.208;6.964;2023-01-16T18:00:47;6.97;;;6.37;;
15307;SDS011;7755;52.208;6.964;2023-01-16T18:04:52;8.37;;;7.57;;
15307;SDS011;7755;52.208;6.964;2023-01-16T18:08:57;6.30;;;5.70;;
15307;SDS011;7755;52.208;6.964;2023-01-16T18:13:03;6.10;;;5.60;;
15307;SDS011;7755;52.208;6.964;2023-01-16T18:17:23;5.73;;;5.30;;
15307;SDS011;7755;52.208;6.964;2023-01-16T18:21:27;8.13;;;7.33;;
15307;SDS011;7755;52.208;6.964;2023-01-16T18:25:49;5.60;;;5.10;;
15307;SDS011;7755;52.208;6.964;2023-01-16T18:29:53;6.83;;;6.33;;
15307;SDS011;7755;52.208;6.964;2023-01-16T18:33:57;7.33;;;6.80;;
15307;SDS011;7755;52.208;6.964;2023-01-16T18:38:00;14.57;;;13.47;;
15307;SDS011;7755;52.208;6.964;2023-01-16T18:42:25;8.00;;;7.30;;
15307;SDS011;7755;52.208;6.964;2023-01-16T18:46:52;13.30;;;12.00;;
15307;SDS011;7755;52.208;6.964;2023-01-16T18:51:14;9.07;;;8.17;;
15307;SDS011;7755;52.208;6.964;2023-01-16T18:55:36;8.23;;;7.53;;
15307;SDS011;7755;52.208;6.964;2023-01-16T18:59:59;11.20;;;10.30;;
15307;SDS011;7755;52.208;6.964;2023-01-16T19:04:19;13.30;;;12.13;;
15307;SDS011;7755;52.208;6.964;2023-01-16T19:08:23;24.00;;;21.70;;
15307;SDS011;7755;52.208;6.964;2023-01-16T19:12:29;14.57;;;13.17;;
15307;SDS011;7755;52.208;6.964;2023-01-16T19:16:36;11.77;;;10.67;;
15307;SDS011;7755;52.208;6.964;2023-01-16T19:20:55;9.87;;;8.87;;
15307;SDS011;7755;52.208;6.964;2023-01-16T19:24:58;11.43;;;10.53;;
15307;SDS011;7755;52.208;6.964;2023-01-16T19:29:01;9.67;;;8.77;;
15307;SDS011;7755;52.208;6.964;2023-01-16T19:33:07;16.17;;;14.57;;
15307;SDS011;7755;52.208;6.964;2023-01-16T19:37:10;14.80;;;13.27;;
15307;SDS011;7755;52.208;6.964;2023-01-16T19:41:15;13.43;;;12.03;;
15307;SDS011;7755;52.208;6.964;2023-01-16T19:45:36;13.97;;;12.67;;
15307;SDS011;7755;52.208;6.964;2023-01-16T19:50:14;15.67;;;14.07;;
15307;SDS011;7755;52.208;6.964;2023-01-16T19:54:21;14.40;;;12.90;;
15307;SDS011;7755;52.208;6.964;2023-01-16T19:58:25;15.27;;;13.77;;
15307;SDS011;7755;52.208;6.964;2023-01-16T20:02:39;15.03;;;12.70;;
15307;SDS011;7755;52.208;6.964;2023-01-16T20:06:43;17.40;;;15.13;;
15307;SDS011;7755;52.208;6.964;2023-01-16T20:10:47;19.97;;;17.87;;
15307;SDS011;7755;52.208;6.964;2023-01-16T20:14:53;19.23;;;17.33;;
15307;SDS011;7755;52.208;6.964;2023-01-16T20:18:59;16.20;;;14.63;;
15307;SDS011;7755;52.208;6.964;2023-01-16T20:23:04;18.37;;;15.70;;
15307;SDS011;7755;52.208;6.964;2023-01-16T20:27:07;17.33;;;15.23;;
15307;SDS011;7755;52.208;6.964;2023-01-16T20:31:12;15.33;;;13.00;;
15307;SDS011;7755;52.208;6.964;2023-01-16T20:35:17;17.47;;;14.67;;
15307;SDS011;7755;52.208;6.964;2023-01-16T20:39:23;21.10;;;17.30;;
15307;SDS011;7755;52.208;6.964;2023-01-16T20:43:26;19.80;;;17.70;;
15307;SDS011;7755;52.208;6.964;2023-01-16T20:47:47;17.87;;;15.47;;
15307;SDS011;7755;52.208;6.964;2023-01-16T20:51:50;16.80;;;14.37;;
15307;SDS011;7755;52.208;6.964;2023-01-16T20:55:55;14.13;;;12.63;;
15307;SDS011;7755;52.208;6.964;2023-01-16T20:59:58;15.47;;;13.93;;
15307;SDS011;7755;52.208;6.964;2023-01-16T21:04:01;15.87;;;13.07;;
15307;SDS011;7755;52.208;6.964;2023-01-16T21:08:04;12.83;;;11.33;;
15307;SDS011;7755;52.208;6.964;2023-01-16T21:12:09;12.23;;;10.63;;
15307;SDS011;7755;52.208;6.964;2023-01-16T21:16:44;9.93;;;8.93;;
15307;SDS011;7755;52.208;6.964;2023-01-16T21:21:07;7.70;;;7.00;;
15307;SDS011;7755;52.208;6.964;2023-01-16T21:25:28;9.00;;;8.10;;
15307;SDS011;7755;52.208;6.964;2023-01-16T21:29:33;7.83;;;7.13;;
15307;SDS011;7755;52.208;6.964;2023-01-16T21:33:37;8.33;;;7.53;;
15307;SDS011;7755;52.208;6.964;2023-01-16T21:37:41;8.67;;;7.87;;
15307;SDS011;7755;52.208;6.964;2023-01-16T21:41:45;8.80;;;8.07;;
15307;SDS011;7755;52.208;6.964;2023-01-16T21:46:08;9.03;;;8.13;;
15307;SDS011;7755;52.208;6.964;2023-01-16T21:50:30;8.70;;;7.80;;
15307;SDS011;7755;52.208;6.964;2023-01-16T21:54:33;8.70;;;7.93;;
15307;SDS011;7755;52.208;6.964;2023-01-16T21:58:36;8.97;;;8.17;;
15307;SDS011;7755;52.208;6.964;2023-01-16T22:02:42;8.87;;;7.97;;
15307;SDS011;7755;52.208;6.964;2023-01-16T22:06:46;8.40;;;7.70;;
15307;SDS011;7755;52.208;6.964;2023-01-16T22:10:50;7.87;;;7.17;;
15307;SDS011;7755;52.208;6.964;2023-01-16T22:15:20;8.23;;;7.50;;
15307;SDS011;7755;52.208;6.964;2023-01-16T22:19:42;7.67;;;6.97;;
15307;SDS011;7755;52.208;6.964;2023-01-16T22:23:55;8.63;;;7.83;;
15307;SDS011;7755;52.208;6.964;2023-01-16T22:28:10;7.10;;;6.53;;
15307;SDS011;7755;52.208;6.964;2023-01-16T22:32:17;7.73;;;7.03;;
15307;SDS011;7755;52.208;6.964;2023-01-16T22:36:22;8.30;;;7.60;;
15307;SDS011;7755;52.208;6.964;2023-01-16T22:40:24;9.43;;;8.53;;
15307;SDS011;7755;52.208;6.964;2023-01-16T22:44:27;8.90;;;8.10;;
15307;SDS011;7755;52.208;6.964;2023-01-16T22:48:44;8.40;;;7.70;;
15307;SDS011;7755;52.208;6.964;2023-01-16T22:52:49;6.87;;;6.30;;
15307;SDS011;7755;52.208;6.964;2023-01-16T22:56:51;6.83;;;6.13;;
15307;SDS011;7755;52.208;6.964;2023-01-16T23:00:55;7.03;;;6.33;;
15307;SDS011;7755;52.208;6.964;2023-01-16T23:04:59;6.70;;;6.10;;
15307;SDS011;7755;52.208;6.964;2023-01-16T23:09:03;6.67;;;6.07;;
15307;SDS011;7755;52.208;6.964;2023-01-16T23:13:06;6.57;;;5.87;;
15307;SDS011;7755;52.208;6.964;2023-01-16T23:17:09;6.90;;;6.30;;
15307;SDS011;7755;52.208;6.964;2023-01-16T23:21:13;5.33;;;4.93;;
15307;SDS011;7755;52.208;6.964;2023-01-16T23:25:18;5.47;;;5.07;;
15307;SDS011;7755;52.208;6.964;2023-01-16T23:29:23;5.47;;;4.90;;
15307;SDS011;7755;52.208;6.964;2023-01-16T23:33:27;5.33;;;4.93;;
15307;SDS011;7755;52.208;6.964;2023-01-16T23:37:32;5.23;;;4.73;;
15307;SDS011;7755;52.208;6.964;2023-01-16T23:41:36;3.90;;;3.60;;
15307;SDS011;7755;52.208;6.964;2023-01-16T23:45:59;3.80;;;3.50;;
15307;SDS011;7755;52.208;6.964;2023-01-16T23:50:02;3.90;;;3.50;;
15307;SDS011;7755;52.208;6.964;2023-01-16T23:54:07;4.10;;;3.73;;
15307;SDS011;7755;52.208;6.964;2023-01-16T23:58:11;3.57;;;3.33;;
